sensor_id;sensor_type;location;lat;lon;timestamp;P1;durP1;ratioP1;P2;durP2;ratioP2
45065;SDS011;30830;53.704;10.004;2024-02-21T00:01:49;29.75;;;15.00;;
45065;SDS011;30830;53.704;10.004;2024-02-21T00:04:15;23.98;;;14.13;;
45065;SDS011;30830;53.704;10.004;2024-02-21T00:06:41;34.50;;;15.80;;
45065;SDS011;30830;53.704;10.004;2024-02-21T00:09:06;31.52;;;15.95;;
45065;SDS011;30830;53.704;10.004;2024-02-21T00:11:34;33.85;;;16.05;;
45065;SDS011;30830;53.704;10.004;2024-02-21T00:14:00;20.63;;;13.75;;
45065;SDS011;30830;53.704;10.004;2024-02-21T00:16:26;29.65;;;14.20;;
45065;SDS011;30830;53.704;10.004;2024-02-21T00:18:51;33.92;;;16.30;;
45065;SDS011;30830;53.704;10.004;2024-02-21T00:21:17;26.70;;;16.67;;
45065;SDS011;30830;53.704;10.004;2024-02-21T00:23:45;32.58;;;14.95;;
45065;SDS011;30830;53.704;10.004;2024-02-21T00:26:14;31.65;;;15.75;;
45065;SDS011;30830;53.704;10.004;2024-02-21T00:28:39;25.65;;;15.63;;
45065;SDS011;30830;53.704;10.004;2024-02-21T00:31:05;30.83;;;15.13;;
45065;SDS011;30830;53.704;10.004;2024-02-21T00:33:31;30.98;;;16.52;;
45065;SDS011;30830;53.704;10.004;2024-02-21T00:35:56;24.45;;;15.55;;
45065;SDS011;30830;53.704;10.004;2024-02-21T00:38:22;33.13;;;15.95;;
45065;SDS011;30830;53.704;10.004;2024-02-21T00:40:48;33.65;;;14.93;;
45065;SDS011;30830;53.704;10.004;2024-02-21T00:43:13;26.52;;;15.15;;
45065;SDS011;30830;53.704;10.004;2024-02-21T00:45:39;30.48;;;16.25;;
45065;SDS011;30830;53.704;10.004;2024-02-21T00:48:04;33.05;;;15.95;;
45065;SDS011;30830;53.704;10.004;2024-02-21T00:50:30;33.75;;;16.15;;
45065;SDS011;30830;53.704;10.004;2024-02-21T00:52:56;30.27;;;16.50;;
45065;SDS011;30830;53.704;10.004;2024-02-21T00:55:21;32.70;;;16.38;;
45065;SDS011;30830;53.704;10.004;2024-02-21T00:57:47;33.35;;;16.52;;
45065;SDS011;30830;53.704;10.004;2024-02-21T01:00:13;36.15;;;16.00;;
45065;SDS011;30830;53.704;10.004;2024-02-21T01:02:39;25.27;;;15.75;;
45065;SDS011;30830;53.704;10.004;2024-02-21T01:05:04;30.15;;;16.48;;
45065;SDS011;30830;53.704;10.004;2024-02-21T01:07:30;31.02;;;17.33;;
45065;SDS011;30830;53.704;10.004;2024-02-21T01:09:56;39.50;;;17.95;;
45065;SDS011;30830;53.704;10.004;2024-02-21T01:12:22;25.98;;;16.00;;
45065;SDS011;30830;53.704;10.004;2024-02-21T01:14:47;29.92;;;17.15;;
45065;SDS011;30830;53.704;10.004;2024-02-21T01:17:14;25.63;;;14.85;;
45065;SDS011;30830;53.704;10.004;2024-02-21T01:19:40;28.35;;;16.33;;
45065;SDS011;30830;53.704;10.004;2024-02-21T01:22:06;34.58;;;16.35;;
45065;SDS011;30830;53.704;10.004;2024-02-21T01:24:31;34.10;;;16.70;;
45065;SDS011;30830;53.704;10.004;2024-02-21T01:26:57;32.80;;;17.15;;
45065;SDS011;30830;53.704;10.004;2024-02-21T01:29:23;29.38;;;14.68;;
45065;SDS011;30830;53.704;10.004;2024-02-21T01:31:48;26.63;;;15.93;;
45065;SDS011;30830;53.704;10.004;2024-02-21T01:34:14;29.27;;;16.33;;
45065;SDS011;30830;53.704;10.004;2024-02-21T01:36:39;35.25;;;16.40;;
45065;SDS011;30830;53.704;10.004;2024-02-21T01:39:06;31.88;;;16.42;;
45065;SDS011;30830;53.704;10.004;2024-02-21T01:41:32;32.10;;;16.75;;
45065;SDS011;30830;53.704;10.004;2024-02-21T01:43:57;26.38;;;15.98;;
45065;SDS011;30830;53.704;10.004;2024-02-21T01:46:23;32.78;;;15.60;;
45065;SDS011;30830;53.704;10.004;2024-02-21T01:48:53;25.35;;;14.32;;
45065;SDS011;30830;53.704;10.004;2024-02-21T01:51:19;24.83;;;14.90;;
45065;SDS011;30830;53.704;10.004;2024-02-21T01:53:45;35.00;;;16.40;;
45065;SDS011;30830;53.704;10.004;2024-02-21T01:56:12;23.52;;;14.25;;
45065;SDS011;30830;53.704;10.004;2024-02-21T01:58:39;23.92;;;13.45;;
45065;SDS011;30830;53.704;10.004;2024-02-21T02:01:07;29.40;;;16.13;;
45065;SDS011;30830;53.704;10.004;2024-02-21T02:03:33;27.42;;;15.50;;
45065;SDS011;30830;53.704;10.004;2024-02-21T02:05:59;26.33;;;15.73;;
45065;SDS011;30830;53.704;10.004;2024-02-21T02:08:24;36.15;;;16.92;;
45065;SDS011;30830;53.704;10.004;2024-02-21T02:10:51;26.45;;;15.68;;
45065;SDS011;30830;53.704;10.004;2024-02-21T02:13:17;27.63;;;15.98;;
45065;SDS011;30830;53.704;10.004;2024-02-21T02:15:43;23.65;;;14.98;;
45065;SDS011;30830;53.704;10.004;2024-02-21T02:18:10;28.50;;;15.98;;
45065;SDS011;30830;53.704;10.004;2024-02-21T02:20:37;23.75;;;14.20;;
45065;SDS011;30830;53.704;10.004;2024-02-21T02:23:05;24.65;;;15.32;;
45065;SDS011;30830;53.704;10.004;2024-02-21T02:25:32;27.80;;;16.25;;
45065;SDS011;30830;53.704;10.004;2024-02-21T02:27:57;28.85;;;16.90;;
45065;SDS011;30830;53.704;10.004;2024-02-21T02:30:23;30.50;;;16.65;;
45065;SDS011;30830;53.704;10.004;2024-02-21T02:32:49;34.95;;;16.92;;
45065;SDS011;30830;53.704;10.004;2024-02-21T02:35:14;29.17;;;17.42;;
45065;SDS011;30830;53.704;10.004;2024-02-21T02:37:40;31.23;;;17.63;;
45065;SDS011;30830;53.704;10.004;2024-02-21T02:40:12;29.88;;;16.70;;
45065;SDS011;30830;53.704;10.004;2024-02-21T02:42:37;27.55;;;17.58;;
45065;SDS011;30830;53.704;10.004;2024-02-21T02:45:03;28.70;;;17.45;;
45065;SDS011;30830;53.704;10.004;2024-02-21T02:47:29;28.45;;;18.10;;
45065;SDS011;30830;53.704;10.004;2024-02-21T02:49:54;31.10;;;17.35;;
45065;SDS011;30830;53.704;10.004;2024-02-21T02:52:20;32.60;;;18.92;;
45065;SDS011;30830;53.704;10.004;2024-02-21T02:54:45;36.28;;;18.88;;
45065;SDS011;30830;53.704;10.004;2024-02-21T02:57:16;36.63;;;19.42;;
45065;SDS011;30830;53.704;10.004;2024-02-21T02:59:42;30.75;;;20.45;;
45065;SDS011;30830;53.704;10.004;2024-02-21T03:02:12;29.98;;;18.70;;
45065;SDS011;30830;53.704;10.004;2024-02-21T03:04:39;36.35;;;20.83;;
45065;SDS011;30830;53.704;10.004;2024-02-21T03:07:05;38.97;;;20.30;;
45065;SDS011;30830;53.704;10.004;2024-02-21T03:09:31;35.55;;;20.08;;
45065;SDS011;30830;53.704;10.004;2024-02-21T03:11:56;40.80;;;20.38;;
45065;SDS011;30830;53.704;10.004;2024-02-21T03:14:27;29.95;;;18.27;;
45065;SDS011;30830;53.704;10.004;2024-02-21T03:16:53;33.05;;;19.23;;
45065;SDS011;30830;53.704;10.004;2024-02-21T03:19:19;37.28;;;20.13;;
45065;SDS011;30830;53.704;10.004;2024-02-21T03:21:44;30.83;;;19.30;;
45065;SDS011;30830;53.704;10.004;2024-02-21T03:24:10;30.23;;;18.48;;
45065;SDS011;30830;53.704;10.004;2024-02-21T03:26:35;35.70;;;18.98;;
45065;SDS011;30830;53.704;10.004;2024-02-21T03:29:01;39.92;;;19.15;;
45065;SDS011;30830;53.704;10.004;2024-02-21T03:31:26;35.15;;;18.42;;
45065;SDS011;30830;53.704;10.004;2024-02-21T03:33:52;33.40;;;19.17;;
45065;SDS011;30830;53.704;10.004;2024-02-21T03:36:18;36.40;;;19.33;;
45065;SDS011;30830;53.704;10.004;2024-02-21T03:38:43;31.92;;;18.45;;
45065;SDS011;30830;53.704;10.004;2024-02-21T03:41:09;41.03;;;18.17;;
45065;SDS011;30830;53.704;10.004;2024-02-21T03:43:37;32.13;;;16.50;;
45065;SDS011;30830;53.704;10.004;2024-02-21T03:46:03;36.13;;;19.55;;
45065;SDS011;30830;53.704;10.004;2024-02-21T03:48:28;29.10;;;16.88;;
45065;SDS011;30830;53.704;10.004;2024-02-21T03:50:54;24.83;;;16.88;;
45065;SDS011;30830;53.704;10.004;2024-02-21T03:53:19;28.73;;;17.85;;
45065;SDS011;30830;53.704;10.004;2024-02-21T03:55:45;27.15;;;17.90;;
45065;SDS011;30830;53.704;10.004;2024-02-21T03:58:10;30.40;;;18.05;;
45065;SDS011;30830;53.704;10.004;2024-02-21T04:00:36;35.78;;;16.83;;
45065;SDS011;30830;53.704;10.004;2024-02-21T04:03:02;27.40;;;17.50;;
45065;SDS011;30830;53.704;10.004;2024-02-21T04:05:28;31.35;;;16.30;;
45065;SDS011;30830;53.704;10.004;2024-02-21T04:07:53;27.85;;;16.55;;
45065;SDS011;30830;53.704;10.004;2024-02-21T04:10:19;29.05;;;17.60;;
45065;SDS011;30830;53.704;10.004;2024-02-21T04:12:44;28.30;;;15.90;;
45065;SDS011;30830;53.704;10.004;2024-02-21T04:15:10;24.55;;;16.02;;
45065;SDS011;30830;53.704;10.004;2024-02-21T04:17:36;29.77;;;16.58;;
45065;SDS011;30830;53.704;10.004;2024-02-21T04:20:04;32.97;;;16.17;;
45065;SDS011;30830;53.704;10.004;2024-02-21T04:22:33;25.58;;;15.35;;
45065;SDS011;30830;53.704;10.004;2024-02-21T04:24:59;24.63;;;14.93;;
45065;SDS011;30830;53.704;10.004;2024-02-21T04:27:25;25.17;;;14.75;;
45065;SDS011;30830;53.704;10.004;2024-02-21T04:29:52;26.20;;;15.00;;
45065;SDS011;30830;53.704;10.004;2024-02-21T04:32:18;26.27;;;15.43;;
45065;SDS011;30830;53.704;10.004;2024-02-21T04:34:43;22.38;;;13.60;;
45065;SDS011;30830;53.704;10.004;2024-02-21T04:37:09;27.98;;;15.52;;
45065;SDS011;30830;53.704;10.004;2024-02-21T04:39:35;22.15;;;14.38;;
45065;SDS011;30830;53.704;10.004;2024-02-21T04:42:00;24.13;;;14.48;;
45065;SDS011;30830;53.704;10.004;2024-02-21T04:44:26;21.48;;;14.02;;
45065;SDS011;30830;53.704;10.004;2024-02-21T04:46:51;21.58;;;14.50;;
45065;SDS011;30830;53.704;10.004;2024-02-21T04:49:17;20.55;;;12.50;;
45065;SDS011;30830;53.704;10.004;2024-02-21T04:51:42;21.30;;;12.75;;
45065;SDS011;30830;53.704;10.004;2024-02-21T04:54:08;21.60;;;13.20;;
45065;SDS011;30830;53.704;10.004;2024-02-21T04:56:34;21.35;;;12.32;;
45065;SDS011;30830;53.704;10.004;2024-02-21T04:58:59;20.88;;;12.60;;
45065;SDS011;30830;53.704;10.004;2024-02-21T05:01:25;19.00;;;12.40;;
45065;SDS011;30830;53.704;10.004;2024-02-21T05:03:50;20.17;;;11.82;;
45065;SDS011;30830;53.704;10.004;2024-02-21T05:06:16;17.35;;;10.43;;
45065;SDS011;30830;53.704;10.004;2024-02-21T05:08:41;19.95;;;11.27;;
45065;SDS011;30830;53.704;10.004;2024-02-21T05:11:07;19.30;;;13.02;;
45065;SDS011;30830;53.704;10.004;2024-02-21T05:13:33;16.48;;;11.52;;
45065;SDS011;30830;53.704;10.004;2024-02-21T05:15:58;14.77;;;10.32;;
45065;SDS011;30830;53.704;10.004;2024-02-21T05:18:26;18.33;;;10.82;;
45065;SDS011;30830;53.704;10.004;2024-02-21T05:20:52;13.38;;;9.98;;
45065;SDS011;30830;53.704;10.004;2024-02-21T05:23:18;15.13;;;9.75;;
45065;SDS011;30830;53.704;10.004;2024-02-21T05:25:43;18.40;;;9.82;;
45065;SDS011;30830;53.704;10.004;2024-02-21T05:28:09;13.15;;;9.75;;
45065;SDS011;30830;53.704;10.004;2024-02-21T05:30:34;14.10;;;10.15;;
45065;SDS011;30830;53.704;10.004;2024-02-21T05:33:03;15.15;;;8.60;;
45065;SDS011;30830;53.704;10.004;2024-02-21T05:35:30;14.55;;;9.25;;
45065;SDS011;30830;53.704;10.004;2024-02-21T05:37:55;13.25;;;9.25;;
45065;SDS011;30830;53.704;10.004;2024-02-21T05:40:21;11.50;;;8.63;;
45065;SDS011;30830;53.704;10.004;2024-02-21T05:42:47;10.75;;;8.38;;
45065;SDS011;30830;53.704;10.004;2024-02-21T05:45:12;11.02;;;7.57;;
45065;SDS011;30830;53.704;10.004;2024-02-21T05:47:39;11.23;;;7.13;;
45065;SDS011;30830;53.704;10.004;2024-02-21T05:50:05;11.00;;;7.47;;
45065;SDS011;30830;53.704;10.004;2024-02-21T05:52:31;10.07;;;7.38;;
45065;SDS011;30830;53.704;10.004;2024-02-21T05:54:56;12.20;;;6.32;;
45065;SDS011;30830;53.704;10.004;2024-02-21T05:57:22;8.60;;;6.65;;
45065;SDS011;30830;53.704;10.004;2024-02-21T05:59:47;6.55;;;5.63;;
45065;SDS011;30830;53.704;10.004;2024-02-21T06:02:13;8.57;;;6.70;;
45065;SDS011;30830;53.704;10.004;2024-02-21T06:04:38;8.80;;;6.40;;
45065;SDS011;30830;53.704;10.004;2024-02-21T06:07:04;8.98;;;6.57;;
45065;SDS011;30830;53.704;10.004;2024-02-21T06:09:30;11.02;;;6.10;;
45065;SDS011;30830;53.704;10.004;2024-02-21T06:11:56;9.60;;;5.93;;
45065;SDS011;30830;53.704;10.004;2024-02-21T06:14:22;8.07;;;5.57;;
45065;SDS011;30830;53.704;10.004;2024-02-21T06:16:47;10.93;;;6.60;;
45065;SDS011;30830;53.704;10.004;2024-02-21T06:19:13;9.70;;;5.95;;
45065;SDS011;30830;53.704;10.004;2024-02-21T06:21:39;9.35;;;6.05;;
45065;SDS011;30830;53.704;10.004;2024-02-21T06:24:04;6.28;;;4.93;;
45065;SDS011;30830;53.704;10.004;2024-02-21T06:26:30;6.75;;;4.90;;
45065;SDS011;30830;53.704;10.004;2024-02-21T06:28:55;8.10;;;5.20;;
45065;SDS011;30830;53.704;10.004;2024-02-21T06:31:21;7.55;;;5.10;;
45065;SDS011;30830;53.704;10.004;2024-02-21T06:33:46;6.57;;;4.82;;
45065;SDS011;30830;53.704;10.004;2024-02-21T06:36:12;7.70;;;4.68;;
45065;SDS011;30830;53.704;10.004;2024-02-21T06:38:38;5.32;;;4.07;;
45065;SDS011;30830;53.704;10.004;2024-02-21T06:41:03;6.50;;;4.47;;
45065;SDS011;30830;53.704;10.004;2024-02-21T06:43:29;5.00;;;4.18;;
45065;SDS011;30830;53.704;10.004;2024-02-21T06:45:55;4.90;;;3.85;;
45065;SDS011;30830;53.704;10.004;2024-02-21T06:48:21;4.75;;;3.33;;
45065;SDS011;30830;53.704;10.004;2024-02-21T06:50:47;3.78;;;3.25;;
45065;SDS011;30830;53.704;10.004;2024-02-21T06:53:13;9.32;;;4.75;;
45065;SDS011;30830;53.704;10.004;2024-02-21T06:55:39;6.13;;;4.70;;
45065;SDS011;30830;53.704;10.004;2024-02-21T06:58:04;3.95;;;3.45;;
45065;SDS011;30830;53.704;10.004;2024-02-21T07:00:30;5.43;;;3.35;;
45065;SDS011;30830;53.704;10.004;2024-02-21T07:02:56;3.47;;;2.92;;
45065;SDS011;30830;53.704;10.004;2024-02-21T07:05:21;5.28;;;2.97;;
45065;SDS011;30830;53.704;10.004;2024-02-21T07:07:47;5.93;;;3.40;;
45065;SDS011;30830;53.704;10.004;2024-02-21T07:10:12;3.38;;;2.70;;
45065;SDS011;30830;53.704;10.004;2024-02-21T07:12:38;3.22;;;2.65;;
45065;SDS011;30830;53.704;10.004;2024-02-21T07:15:07;3.33;;;2.42;;
45065;SDS011;30830;53.704;10.004;2024-02-21T07:17:32;5.50;;;3.20;;
45065;SDS011;30830;53.704;10.004;2024-02-21T07:19:58;7.63;;;3.17;;
45065;SDS011;30830;53.704;10.004;2024-02-21T07:22:24;4.00;;;3.00;;
45065;SDS011;30830;53.704;10.004;2024-02-21T07:24:50;4.00;;;2.88;;
45065;SDS011;30830;53.704;10.004;2024-02-21T07:27:15;5.82;;;3.25;;
45065;SDS011;30830;53.704;10.004;2024-02-21T07:29:41;4.63;;;3.05;;
45065;SDS011;30830;53.704;10.004;2024-02-21T07:32:07;5.40;;;3.35;;
45065;SDS011;30830;53.704;10.004;2024-02-21T07:34:32;4.03;;;3.20;;
45065;SDS011;30830;53.704;10.004;2024-02-21T07:36:58;5.22;;;3.47;;
45065;SDS011;30830;53.704;10.004;2024-02-21T07:39:24;7.43;;;3.78;;
45065;SDS011;30830;53.704;10.004;2024-02-21T07:41:49;5.20;;;3.42;;
45065;SDS011;30830;53.704;10.004;2024-02-21T07:44:15;7.68;;;3.95;;
45065;SDS011;30830;53.704;10.004;2024-02-21T07:46:41;9.60;;;3.65;;
45065;SDS011;30830;53.704;10.004;2024-02-21T07:49:06;9.73;;;4.35;;
45065;SDS011;30830;53.704;10.004;2024-02-21T07:51:32;11.25;;;3.70;;
45065;SDS011;30830;53.704;10.004;2024-02-21T07:53:57;6.57;;;3.28;;
45065;SDS011;30830;53.704;10.004;2024-02-21T07:56:23;8.65;;;3.70;;
45065;SDS011;30830;53.704;10.004;2024-02-21T07:58:48;9.75;;;3.47;;
45065;SDS011;30830;53.704;10.004;2024-02-21T08:01:20;15.07;;;4.40;;
45065;SDS011;30830;53.704;10.004;2024-02-21T08:03:46;12.13;;;4.57;;
45065;SDS011;30830;53.704;10.004;2024-02-21T08:06:12;14.50;;;4.47;;
45065;SDS011;30830;53.704;10.004;2024-02-21T08:08:38;12.45;;;3.58;;
45065;SDS011;30830;53.704;10.004;2024-02-21T08:11:03;11.15;;;3.90;;
45065;SDS011;30830;53.704;10.004;2024-02-21T08:13:29;10.32;;;3.88;;
45065;SDS011;30830;53.704;10.004;2024-02-21T08:15:54;11.52;;;4.55;;
45065;SDS011;30830;53.704;10.004;2024-02-21T08:18:20;9.15;;;4.03;;
45065;SDS011;30830;53.704;10.004;2024-02-21T08:20:46;11.77;;;4.10;;
45065;SDS011;30830;53.704;10.004;2024-02-21T08:23:11;10.70;;;3.75;;
45065;SDS011;30830;53.704;10.004;2024-02-21T08:25:37;12.88;;;3.50;;
45065;SDS011;30830;53.704;10.004;2024-02-21T08:28:02;19.17;;;5.45;;
45065;SDS011;30830;53.704;10.004;2024-02-21T08:30:28;9.82;;;3.72;;
45065;SDS011;30830;53.704;10.004;2024-02-21T08:32:54;7.78;;;3.90;;
45065;SDS011;30830;53.704;10.004;2024-02-21T08:35:19;13.63;;;4.15;;
45065;SDS011;30830;53.704;10.004;2024-02-21T08:37:48;13.07;;;3.08;;
45065;SDS011;30830;53.704;10.004;2024-02-21T08:40:14;12.93;;;3.90;;
45065;SDS011;30830;53.704;10.004;2024-02-21T08:42:42;13.38;;;3.53;;
45065;SDS011;30830;53.704;10.004;2024-02-21T08:45:09;7.82;;;3.20;;
45065;SDS011;30830;53.704;10.004;2024-02-21T08:47:35;15.13;;;3.40;;
45065;SDS011;30830;53.704;10.004;2024-02-21T08:50:01;24.30;;;5.03;;
45065;SDS011;30830;53.704;10.004;2024-02-21T08:52:27;11.38;;;4.10;;
45065;SDS011;30830;53.704;10.004;2024-02-21T08:54:53;15.73;;;3.42;;
45065;SDS011;30830;53.704;10.004;2024-02-21T08:57:18;9.77;;;4.00;;
45065;SDS011;30830;53.704;10.004;2024-02-21T08:59:44;12.25;;;3.45;;
45065;SDS011;30830;53.704;10.004;2024-02-21T09:02:10;16.27;;;3.72;;
45065;SDS011;30830;53.704;10.004;2024-02-21T09:04:35;12.32;;;3.05;;
45065;SDS011;30830;53.704;10.004;2024-02-21T09:07:01;16.40;;;3.70;;
45065;SDS011;30830;53.704;10.004;2024-02-21T09:09:26;12.60;;;3.10;;
45065;SDS011;30830;53.704;10.004;2024-02-21T09:11:53;7.63;;;3.47;;
45065;SDS011;30830;53.704;10.004;2024-02-21T09:14:19;14.02;;;3.95;;
45065;SDS011;30830;53.704;10.004;2024-02-21T09:16:44;15.18;;;4.30;;
45065;SDS011;30830;53.704;10.004;2024-02-21T09:19:10;21.17;;;5.55;;
45065;SDS011;30830;53.704;10.004;2024-02-21T09:21:39;13.23;;;5.68;;
45065;SDS011;30830;53.704;10.004;2024-02-21T09:24:05;12.00;;;5.50;;
45065;SDS011;30830;53.704;10.004;2024-02-21T09:26:31;10.75;;;3.75;;
45065;SDS011;30830;53.704;10.004;2024-02-21T09:28:56;18.20;;;5.97;;
45065;SDS011;30830;53.704;10.004;2024-02-21T09:31:22;13.18;;;3.85;;
45065;SDS011;30830;53.704;10.004;2024-02-21T09:33:47;14.10;;;5.05;;
45065;SDS011;30830;53.704;10.004;2024-02-21T09:36:13;15.50;;;4.13;;
45065;SDS011;30830;53.704;10.004;2024-02-21T09:38:39;20.38;;;5.75;;
45065;SDS011;30830;53.704;10.004;2024-02-21T09:41:16;13.25;;;5.13;;
45065;SDS011;30830;53.704;10.004;2024-02-21T09:43:45;11.60;;;3.10;;
45065;SDS011;30830;53.704;10.004;2024-02-21T09:46:17;15.27;;;7.22;;
45065;SDS011;30830;53.704;10.004;2024-02-21T09:51:43;13.57;;;5.03;;
45065;SDS011;30830;53.704;10.004;2024-02-21T09:54:12;16.08;;;5.82;;
45065;SDS011;30830;53.704;10.004;2024-02-21T09:56:38;11.95;;;5.85;;
45065;SDS011;30830;53.704;10.004;2024-02-21T09:59:04;12.65;;;4.97;;
45065;SDS011;30830;53.704;10.004;2024-02-21T10:01:31;12.85;;;5.78;;
45065;SDS011;30830;53.704;10.004;2024-02-21T10:03:57;9.88;;;5.88;;
45065;SDS011;30830;53.704;10.004;2024-02-21T10:06:23;8.25;;;4.43;;
45065;SDS011;30830;53.704;10.004;2024-02-21T10:08:52;8.68;;;4.13;;
45065;SDS011;30830;53.704;10.004;2024-02-21T10:11:22;9.57;;;5.63;;
45065;SDS011;30830;53.704;10.004;2024-02-21T10:13:51;9.35;;;4.82;;
45065;SDS011;30830;53.704;10.004;2024-02-21T10:18:54;12.90;;;4.03;;
45065;SDS011;30830;53.704;10.004;2024-02-21T10:21:19;7.72;;;3.03;;
45065;SDS011;30830;53.704;10.004;2024-02-21T10:23:46;10.32;;;3.53;;
45065;SDS011;30830;53.704;10.004;2024-02-21T10:26:17;8.18;;;3.33;;
45065;SDS011;30830;53.704;10.004;2024-02-21T10:28:45;7.00;;;2.80;;
45065;SDS011;30830;53.704;10.004;2024-02-21T10:31:20;6.72;;;2.83;;
45065;SDS011;30830;53.704;10.004;2024-02-21T10:33:55;5.90;;;3.00;;
45065;SDS011;30830;53.704;10.004;2024-02-21T10:36:24;5.15;;;3.03;;
45065;SDS011;30830;53.704;10.004;2024-02-21T10:38:51;7.65;;;4.32;;
45065;SDS011;30830;53.704;10.004;2024-02-21T10:41:17;16.70;;;6.68;;
45065;SDS011;30830;53.704;10.004;2024-02-21T10:43:46;28.00;;;12.88;;
45065;SDS011;30830;53.704;10.004;2024-02-21T10:46:18;8.55;;;6.20;;
45065;SDS011;30830;53.704;10.004;2024-02-21T10:48:45;21.05;;;10.18;;
45065;SDS011;30830;53.704;10.004;2024-02-21T10:51:14;10.88;;;7.00;;
45065;SDS011;30830;53.704;10.004;2024-02-21T10:59:06;10.98;;;6.30;;
45065;SDS011;30830;53.704;10.004;2024-02-21T11:01:32;8.00;;;5.88;;
45065;SDS011;30830;53.704;10.004;2024-02-21T11:04:04;10.38;;;7.25;;
45065;SDS011;30830;53.704;10.004;2024-02-21T11:06:31;8.27;;;5.47;;
45065;SDS011;30830;53.704;10.004;2024-02-21T11:09:10;7.22;;;6.30;;
45065;SDS011;30830;53.704;10.004;2024-02-21T11:11:37;8.43;;;6.22;;
45065;SDS011;30830;53.704;10.004;2024-02-21T11:14:10;8.93;;;6.72;;
45065;SDS011;30830;53.704;10.004;2024-02-21T11:16:42;13.35;;;8.20;;
45065;SDS011;30830;53.704;10.004;2024-02-21T11:19:08;13.63;;;9.30;;
45065;SDS011;30830;53.704;10.004;2024-02-21T11:21:36;12.20;;;8.45;;
45065;SDS011;30830;53.704;10.004;2024-02-21T11:24:05;12.93;;;8.73;;
45065;SDS011;30830;53.704;10.004;2024-02-21T11:26:32;12.95;;;8.45;;
45065;SDS011;30830;53.704;10.004;2024-02-21T11:28:58;13.98;;;9.20;;
45065;SDS011;30830;53.704;10.004;2024-02-21T11:31:43;12.32;;;9.23;;
45065;SDS011;30830;53.704;10.004;2024-02-21T11:34:11;14.85;;;10.60;;
45065;SDS011;30830;53.704;10.004;2024-02-21T11:36:49;13.57;;;11.05;;
45065;SDS011;30830;53.704;10.004;2024-02-21T11:39:23;22.20;;;13.68;;
45065;SDS011;30830;53.704;10.004;2024-02-21T11:42:05;20.42;;;14.82;;
45065;SDS011;30830;53.704;10.004;2024-02-21T11:44:34;27.20;;;15.48;;
45065;SDS011;30830;53.704;10.004;2024-02-21T11:47:02;21.95;;;15.80;;
45065;SDS011;30830;53.704;10.004;2024-02-21T11:49:29;25.00;;;16.33;;
45065;SDS011;30830;53.704;10.004;2024-02-21T11:51:59;28.13;;;16.35;;
45065;SDS011;30830;53.704;10.004;2024-02-21T11:54:26;25.38;;;16.55;;
45065;SDS011;30830;53.704;10.004;2024-02-21T11:56:52;25.33;;;15.63;;
45065;SDS011;30830;53.704;10.004;2024-02-21T11:59:17;21.83;;;15.15;;
45065;SDS011;30830;53.704;10.004;2024-02-21T12:01:43;24.67;;;15.63;;
45065;SDS011;30830;53.704;10.004;2024-02-21T12:04:08;25.60;;;14.70;;
45065;SDS011;30830;53.704;10.004;2024-02-21T12:06:35;20.33;;;13.18;;
45065;SDS011;30830;53.704;10.004;2024-02-21T12:09:00;20.70;;;12.73;;
45065;SDS011;30830;53.704;10.004;2024-02-21T12:11:26;16.50;;;11.50;;
45065;SDS011;30830;53.704;10.004;2024-02-21T12:14:01;19.52;;;11.63;;
45065;SDS011;30830;53.704;10.004;2024-02-21T12:16:37;22.25;;;11.32;;
45065;SDS011;30830;53.704;10.004;2024-02-21T12:19:03;17.98;;;11.02;;
45065;SDS011;30830;53.704;10.004;2024-02-21T12:21:32;16.67;;;11.38;;
45065;SDS011;30830;53.704;10.004;2024-02-21T12:24:20;15.55;;;10.00;;
45065;SDS011;30830;53.704;10.004;2024-02-21T12:26:47;17.73;;;10.55;;
45065;SDS011;30830;53.704;10.004;2024-02-21T12:29:13;16.25;;;10.38;;
45065;SDS011;30830;53.704;10.004;2024-02-21T12:31:39;16.73;;;10.60;;
45065;SDS011;30830;53.704;10.004;2024-02-21T12:34:05;19.10;;;11.13;;
45065;SDS011;30830;53.704;10.004;2024-02-21T12:36:32;17.70;;;9.73;;
45065;SDS011;30830;53.704;10.004;2024-02-21T12:38:58;17.48;;;9.82;;
45065;SDS011;30830;53.704;10.004;2024-02-21T12:41:25;16.15;;;10.85;;
45065;SDS011;30830;53.704;10.004;2024-02-21T12:43:52;15.63;;;9.40;;
45065;SDS011;30830;53.704;10.004;2024-02-21T12:46:17;18.08;;;12.20;;
45065;SDS011;30830;53.704;10.004;2024-02-21T12:48:43;17.52;;;12.68;;
45065;SDS011;30830;53.704;10.004;2024-02-21T12:51:09;18.60;;;12.77;;
45065;SDS011;30830;53.704;10.004;2024-02-21T12:53:36;19.42;;;11.73;;
45065;SDS011;30830;53.704;10.004;2024-02-21T12:56:01;19.90;;;14.05;;
45065;SDS011;30830;53.704;10.004;2024-02-21T12:58:27;18.27;;;11.15;;
45065;SDS011;30830;53.704;10.004;2024-02-21T13:00:56;17.75;;;11.27;;
45065;SDS011;30830;53.704;10.004;2024-02-21T13:03:22;18.50;;;10.32;;
45065;SDS011;30830;53.704;10.004;2024-02-21T13:05:47;20.65;;;11.40;;
45065;SDS011;30830;53.704;10.004;2024-02-21T13:08:13;15.18;;;10.02;;
45065;SDS011;30830;53.704;10.004;2024-02-21T13:10:38;15.43;;;10.52;;
45065;SDS011;30830;53.704;10.004;2024-02-21T13:13:04;16.30;;;10.77;;
45065;SDS011;30830;53.704;10.004;2024-02-21T13:15:30;21.30;;;15.07;;
45065;SDS011;30830;53.704;10.004;2024-02-21T13:17:56;18.55;;;12.25;;
45065;SDS011;30830;53.704;10.004;2024-02-21T13:20:22;14.38;;;10.32;;
45065;SDS011;30830;53.704;10.004;2024-02-21T13:22:48;20.15;;;11.70;;
45065;SDS011;30830;53.704;10.004;2024-02-21T13:25:14;20.15;;;10.88;;
45065;SDS011;30830;53.704;10.004;2024-02-21T13:27:43;14.70;;;9.90;;
45065;SDS011;30830;53.704;10.004;2024-02-21T13:30:09;18.23;;;11.52;;
45065;SDS011;30830;53.704;10.004;2024-02-21T13:32:35;18.67;;;10.50;;
45065;SDS011;30830;53.704;10.004;2024-02-21T13:35:01;17.77;;;10.82;;
45065;SDS011;30830;53.704;10.004;2024-02-21T13:37:28;21.55;;;10.45;;
45065;SDS011;30830;53.704;10.004;2024-02-21T13:39:53;14.93;;;9.02;;
45065;SDS011;30830;53.704;10.004;2024-02-21T13:42:19;21.42;;;10.05;;
45065;SDS011;30830;53.704;10.004;2024-02-21T13:44:45;19.17;;;11.65;;
45065;SDS011;30830;53.704;10.004;2024-02-21T13:47:14;15.57;;;10.27;;
45065;SDS011;30830;53.704;10.004;2024-02-21T13:49:40;21.85;;;11.57;;
45065;SDS011;30830;53.704;10.004;2024-02-21T13:52:07;16.98;;;11.00;;
45065;SDS011;30830;53.704;10.004;2024-02-21T13:54:36;18.20;;;10.85;;
45065;SDS011;30830;53.704;10.004;2024-02-21T13:57:01;18.08;;;10.93;;
45065;SDS011;30830;53.704;10.004;2024-02-21T13:59:27;16.08;;;10.82;;
45065;SDS011;30830;53.704;10.004;2024-02-21T14:01:53;16.88;;;10.45;;
45065;SDS011;30830;53.704;10.004;2024-02-21T14:04:19;22.77;;;13.25;;
45065;SDS011;30830;53.704;10.004;2024-02-21T14:06:45;20.05;;;11.60;;
45065;SDS011;30830;53.704;10.004;2024-02-21T14:09:11;22.30;;;14.60;;
45065;SDS011;30830;53.704;10.004;2024-02-21T14:11:37;16.80;;;11.68;;
45065;SDS011;30830;53.704;10.004;2024-02-21T14:14:03;21.95;;;11.15;;
45065;SDS011;30830;53.704;10.004;2024-02-21T14:16:29;17.67;;;11.40;;
45065;SDS011;30830;53.704;10.004;2024-02-21T14:18:55;15.70;;;9.90;;
45065;SDS011;30830;53.704;10.004;2024-02-21T14:21:22;13.73;;;9.93;;
45065;SDS011;30830;53.704;10.004;2024-02-21T14:23:48;17.85;;;10.77;;